Time;durP1;ratioP1;P1;durP2;ratioP2;P2;SDS_P1;SDS_P2;PMS_P1;PMS_P2;Temp;Humidity;BMP_temperature;BMP_pressure;BME280_temperature;BME280_humidity;BME280_pressure;Samples;Min_cycle;Max_cycle;Signal;HPM_P1;HPM_P2
2022/05/21 00:01:51;;;;;;;;;;;;;;;;;;5048566;28;19993;-70
2022/05/21 00:04:17;;;;;;;;;;;;;;;;;;5048899;28;19928;-70
2022/05/21 00:06:42;;;;;;;;;;;;;;;;;;5049162;28;19985;-70
2022/05/21 00:09:07;;;;;;;;;;;;;;;;;;5049517;28;19913;-70
2022/05/21 00:11:32;;;;;;;;;;;;;;;;;;5050605;28;20019;-70
2022/05/21 00:13:57;;;;;;;;;;;;;;;;;;5049938;28;19909;-70
2022/05/21 00:16:23;;;;;;;;;;;;;;;;;;5051083;28;19920;-70
2022/05/21 00:18:48;;;;;;;;;;;;;;;;;;5050512;28;19963;-70
2022/05/21 00:21:13;;;;;;;;;;;;;;;;;;5051919;28;19923;-70
2022/05/21 00:23:38;;;;;;;;;;;;;;;;;;5035458;28;19921;-70
2022/05/21 00:26:03;;;;;;;;;;;;;;;;;;5050721;28;19929;-70
2022/05/21 00:28:29;;;;;;;;;;;;;;;;;;5053169;28;19917;-70
2022/05/21 00:30:54;;;;;;;;;;;;;;;;;;5049923;28;19924;-70
2022/05/21 00:33:19;;;;;;;;;;;;;;;;;;5032434;28;19916;-70
2022/05/21 00:35:44;;;;;;;;;;;;;;;;;;5049380;28;19974;-70
2022/05/21 00:38:10;;;;;;;;;;;;;;;;;;5051631;28;20285;-69
2022/05/21 00:40:35;;;;;;;;;;;;;;;;;;5049530;28;20304;-70
2022/05/21 00:43:00;;;;;;;;;;;;;;;;;;5048518;28;20763;-68
2022/05/21 00:45:26;;;;;;;;;;;;;;;;;;5049356;28;19917;-69
2022/05/21 00:47:51;;;;;;;;;;;;;;;;;;5035412;28;19929;-69
2022/05/21 00:50:16;;;;;;;;;;;;;;;;;;5048046;28;19961;-69
2022/05/21 00:52:42;;;;;;;;;;;;;;;;;;5032991;28;20467;-69
2022/05/21 00:55:07;;;;;;;;;;;;;;;;;;5036693;28;19924;-69
2022/05/21 00:57:32;;;;;;;;;;;;;;;;;;5052431;28;19916;-70
2022/05/21 00:59:57;;;;;;;;;;;;;;;;;;5051081;28;19971;-69
2022/05/21 01:02:22;;;;;;;;;;;;;;;;;;5050915;28;19973;-69
2022/05/21 01:04:48;;;;;;;;;;;;;;;;;;5033716;28;19917;-69
2022/05/21 01:07:17;;;;;;;;;;;;;;;;;;5035257;28;19950;-69
2022/05/21 01:09:42;;;;;;;;;;;;;;;;;;5050263;28;20438;-69
2022/05/21 01:12:08;;;;;;;;;;;;;;;;;;5051556;28;19916;-69
2022/05/21 01:14:33;;;;;;;;;;;;;;;;;;5049429;28;19956;-69
2022/05/21 01:16:58;;;;;;;;;;;;;;;;;;5049979;28;19991;-68
2022/05/21 01:19:24;;;;;;;;;;;;;;;;;;5049637;28;19917;-69
2022/05/21 01:21:49;;;;;;;;;;;;;;;;;;5052113;28;19917;-69
2022/05/21 01:24:15;;;;;;;;;;;;;;;;;;5049046;28;19916;-69
2022/05/21 01:26:41;;;;;;;;;;;;;;;;;;5049736;28;19987;-69
2022/05/21 01:29:06;;;;;;;;;;;;;;;;;;5051473;28;19916;-69
2022/05/21 01:31:34;;;;;;;;;;;;;;;;;;5050958;28;20418;-71
2022/05/21 01:33:59;;;;;;;;;;;;;;;;;;5041338;28;19917;-68
2022/05/21 01:36:25;;;;;;;;;;;;;;;;;;5033747;28;19936;-68
2022/05/21 01:38:50;;;;;;;;;;;;;;;;;;5049475;28;20308;-69
2022/05/21 01:41:15;;;;;;;;;;;;;;;;;;5049798;28;19916;-69
2022/05/21 01:46:24;;;;;;;;;;;;;;;;;;5049019;28;19920;-68
2022/05/21 01:48:50;;;;;;;;;;;;;;;;;;5050052;28;19924;-68
2022/05/21 01:51:15;;;;;;;;;;;;;;;;;;5050089;28;20512;-68
2022/05/21 01:53:40;;;;;;;;;;;;;;;;;;5049876;28;20395;-69
2022/05/21 01:56:05;;;;;;;;;;;;;;;;;;5014889;28;19917;-69
2022/05/21 01:58:31;;;;;;;;;;;;;;;;;;5021890;28;19922;-68
2022/05/21 02:00:56;;;;;;;;;;;;;;;;;;5036761;28;20057;-69
2022/05/21 02:03:21;;;;;;;;;;;;;;;;;;5050035;28;20688;-69
2022/05/21 02:05:46;;;;;;;;;;;;;;;;;;5053598;28;20011;-69
2022/05/21 02:08:12;;;;;;;;;;;;;;;;;;5052133;28;19974;-70
2022/05/21 02:10:37;;;;;;;;;;;;;;;;;;5055301;28;19931;-69
2022/05/21 02:13:03;;;;;;;;;;;;;;;;;;5034299;28;19974;-69
2022/05/21 02:15:28;;;;;;;;;;;;;;;;;;5054592;28;20006;-69
2022/05/21 02:17:53;;;;;;;;;;;;;;;;;;5053489;28;19917;-69
2022/05/21 02:20:19;;;;;;;;;;;;;;;;;;5054638;28;19917;-69
2022/05/21 02:22:44;;;;;;;;;;;;;;;;;;5056855;28;20034;-69
2022/05/21 02:25:09;;;;;;;;;;;;;;;;;;5051409;28;19923;-69
2022/05/21 02:27:34;;;;;;;;;;;;;;;;;;5052304;28;19947;-69
2022/05/21 02:30:00;;;;;;;;;;;;;;;;;;5051907;28;19916;-68
2022/05/21 02:32:25;;;;;;;;;;;;;;;;;;5023128;28;19966;-68
2022/05/21 02:34:50;;;;;;;;;;;;;;;;;;5047338;28;20428;-69
2022/05/21 02:39:59;;;;;;;;;;;;;;;;;;5050428;28;19924;-69
2022/05/21 02:42:43;;;;;;;;;;;;;;;;;;5051355;28;20426;-68
2022/05/21 02:45:08;;;;;;;;;;;;;;;;;;5052447;28;20024;-68
2022/05/21 02:47:33;;;;;;;;;;;;;;;;;;5053887;28;20712;-68
2022/05/21 02:49:59;;;;;;;;;;;;;;;;;;5051989;28;20008;-68
2022/05/21 02:52:24;;;;;;;;;;;;;;;;;;5037991;28;19920;-68
2022/05/21 02:54:49;;;;;;;;;;;;;;;;;;5034624;28;19948;-68
2022/05/21 02:57:15;;;;;;;;;;;;;;;;;;5051032;28;20265;-67
2022/05/21 02:59:40;;;;;;;;;;;;;;;;;;5015736;28;20734;-68
2022/05/21 03:02:06;;;;;;;;;;;;;;;;;;5050813;28;19916;-68
2022/05/21 03:04:31;;;;;;;;;;;;;;;;;;5052491;28;20012;-68
2022/05/21 03:06:56;;;;;;;;;;;;;;;;;;5033867;28;19928;-67
2022/05/21 03:12:06;;;;;;;;;;;;;;;;;;5052648;28;19916;-67
2022/05/21 03:14:31;;;;;;;;;;;;;;;;;;5053113;28;19923;-68
2022/05/21 03:16:59;;;;;;;;;;;;;;;;;;5038241;28;19916;-68
2022/05/21 03:19:24;;;;;;;;;;;;;;;;;;5049152;28;19920;-67
2022/05/21 03:21:50;;;;;;;;;;;;;;;;;;5051303;28;20357;-68
2022/05/21 03:24:15;;;;;;;;;;;;;;;;;;5051169;28;19944;-68
2022/05/21 03:26:40;;;;;;;;;;;;;;;;;;5052128;28;19930;-67
2022/05/21 03:29:06;;;;;;;;;;;;;;;;;;5053133;28;19917;-67
2022/05/21 03:31:31;;;;;;;;;;;;;;;;;;5035337;28;19922;-67
2022/05/21 03:33:56;;;;;;;;;;;;;;;;;;5050456;28;19917;-67
2022/05/21 03:36:22;;;;;;;;;;;;;;;;;;5051588;28;19920;-68
2022/05/21 03:38:47;;;;;;;;;;;;;;;;;;5051695;28;19923;-67
2022/05/21 03:41:12;;;;;;;;;;;;;;;;;;5051570;28;19974;-67
2022/05/21 03:43:37;;;;;;;;;;;;;;;;;;5053409;28;19923;-68
2022/05/21 03:46:04;;;;;;;;;;;;;;;;;;5033927;28;20484;-67
2022/05/21 03:48:29;;;;;;;;;;;;;;;;;;5036308;28;19917;-67
2022/05/21 03:50:54;;;;;;;;;;;;;;;;;;5033209;28;19913;-67
2022/05/21 03:53:20;;;;;;;;;;;;;;;;;;5051685;28;19925;-67
2022/05/21 03:55:45;;;;;;;;;;;;;;;;;;5035168;28;19951;-67
2022/05/21 03:58:10;;;;;;;;;;;;;;;;;;5032847;28;20630;-67
2022/05/21 04:00:38;;;;;;;;;;;;;;;;;;5051763;28;19917;-67
2022/05/21 04:03:03;;;;;;;;;;;;;;;;;;5040047;28;19939;-67
2022/05/21 04:05:28;;;;;;;;;;;;;;;;;;5046740;28;19974;-67
2022/05/21 04:07:54;;;;;;;;;;;;;;;;;;5035437;28;19923;-67
2022/05/21 04:10:19;;;;;;;;;;;;;;;;;;5016863;28;19967;-67
2022/05/21 04:12:44;;;;;;;;;;;;;;;;;;5053920;28;19916;-67
2022/05/21 04:15:09;;;;;;;;;;;;;;;;;;5051849;28;20003;-67
2022/05/21 04:17:35;;;;;;;;;;;;;;;;;;5037498;28;19946;-67
2022/05/21 04:20:00;;;;;;;;;;;;;;;;;;5048904;28;19921;-67
2022/05/21 04:22:26;;;;;;;;;;;;;;;;;;5051016;28;19916;-67
2022/05/21 04:24:51;;;;;;;;;;;;;;;;;;5054088;28;19978;-67
2022/05/21 04:27:17;;;;;;;;;;;;;;;;;;5034325;28;19921;-66
2022/05/21 04:29:43;;;;;;;;;;;;;;;;;;5049906;28;19928;-67
2022/05/21 04:32:08;;;;;;;;;;;;;;;;;;5019037;28;20032;-66
2022/05/21 04:34:33;;;;;;;;;;;;;;;;;;5033306;28;19959;-67
2022/05/21 04:36:58;;;;;;;;;;;;;;;;;;5035817;28;19925;-66
2022/05/21 04:39:23;;;;;;;;;;;;;;;;;;5049096;28;19916;-67
2022/05/21 04:41:49;;;;;;;;;;;;;;;;;;5053449;28;19948;-67
2022/05/21 04:44:15;;;;;;;;;;;;;;;;;;5049299;28;19967;-67
2022/05/21 04:46:40;;;;;;;;;;;;;;;;;;5035531;28;19967;-66
2022/05/21 04:49:05;;;;;;;;;;;;;;;;;;5051546;28;19925;-67
2022/05/21 04:51:31;;;;;;;;;;;;;;;;;;5049110;28;19916;-68
2022/05/21 04:53:56;;;;;;;;;;;;;;;;;;5022313;28;19916;-67
2022/05/21 04:56:22;;;;;;;;;;;;;;;;;;5050848;28;20706;-67
2022/05/21 04:58:47;;;;;;;;;;;;;;;;;;5036974;28;20389;-67
2022/05/21 05:01:13;;;;;;;;;;;;;;;;;;5032861;28;19925;-67
2022/05/21 05:03:38;;;;;;;;;;;;;;;;;;5050956;28;19916;-67
2022/05/21 05:06:03;;;;;;;;;;;;;;;;;;5047026;28;19917;-67
2022/05/21 05:08:29;;;;;;;;;;;;;;;;;;5018023;28;19916;-67
2022/05/21 05:10:55;;;;;;;;;;;;;;;;;;5033181;28;19932;-66
2022/05/21 05:13:20;;;;;;;;;;;;;;;;;;5048307;28;19975;-66
2022/05/21 05:15:46;;;;;;;;;;;;;;;;;;5034547;28;19994;-67
2022/05/21 05:18:11;;;;;;;;;;;;;;;;;;5034504;28;20542;-66
2022/05/21 05:20:37;;;;;;;;;;;;;;;;;;5032546;28;20491;-67
2022/05/21 05:23:02;;;;;;;;;;;;;;;;;;5048619;28;20062;-66
2022/05/21 05:25:28;;;;;;;;;;;;;;;;;;5051238;28;19917;-66
2022/05/21 05:27:53;;;;;;;;;;;;;;;;;;5030503;28;19927;-66
2022/05/21 05:30:18;;;;;;;;;;;;;;;;;;5034704;28;19917;-66
2022/05/21 05:32:43;;;;;;;;;;;;;;;;;;5017352;28;19916;-66
2022/05/21 05:35:08;;;;;;;;;;;;;;;;;;5049440;28;19987;-66
2022/05/21 05:37:34;;;;;;;;;;;;;;;;;;5032114;28;19920;-66
2022/05/21 05:39:59;;;;;;;;;;;;;;;;;;5025782;28;19977;-66
2022/05/21 05:42:24;;;;;;;;;;;;;;;;;;5047257;28;20222;-67
2022/05/21 05:44:49;;;;;;;;;;;;;;;;;;5030484;28;20459;-67
2022/05/21 05:47:14;;;;;;;;;;;;;;;;;;5050722;28;20491;-66
2022/05/21 05:49:40;;;;;;;;;;;;;;;;;;5049827;28;20321;-67
2022/05/21 05:52:05;;;;;;;;;;;;;;;;;;5050014;28;20452;-67
2022/05/21 05:54:30;;;;;;;;;;;;;;;;;;5049585;28;20344;-66
2022/05/21 05:56:56;;;;;;;;;;;;;;;;;;5048849;28;19925;-66
2022/05/21 06:04:49;;;;;;;;;;;;;;;;;;5050450;28;20000;-66
2022/05/21 06:07:14;;;;;;;;;;;;;;;;;;5035422;28;20483;-66
2022/05/21 06:09:40;;;;;;;;;;;;;;;;;;5047260;28;20014;-66
2022/05/21 06:12:07;;;;;;;;;;;;;;;;;;5052307;28;19952;-66
2022/05/21 06:14:32;;;;;;;;;;;;;;;;;;5046989;28;19924;-66
2022/05/21 06:16:57;;;;;;;;;;;;;;;;;;5050284;28;19925;-66
2022/05/21 06:19:22;;;;;;;;;;;;;;;;;;5031826;28;19920;-66
2022/05/21 06:21:48;;;;;;;;;;;;;;;;;;5047517;28;19917;-67
2022/05/21 06:24:13;;;;;;;;;;;;;;;;;;5015057;28;20415;-67
2022/05/21 06:26:38;;;;;;;;;;;;;;;;;;5052012;28;19956;-66
2022/05/21 06:29:03;;;;;;;;;;;;;;;;;;5047693;28;19960;-66
2022/05/21 06:31:28;;;;;;;;;;;;;;;;;;5049889;28;20031;-66
2022/05/21 06:33:54;;;;;;;;;;;;;;;;;;5035617;28;20476;-67
2022/05/21 06:36:19;;;;;;;;;;;;;;;;;;5052333;28;19929;-67
2022/05/21 06:38:44;;;;;;;;;;;;;;;;;;5037027;28;20064;-66
2022/05/21 06:41:10;;;;;;;;;;;;;;;;;;5054341;28;19916;-66
2022/05/21 06:43:35;;;;;;;;;;;;;;;;;;5054132;28;19916;-67
2022/05/21 06:46:00;;;;;;;;;;;;;;;;;;5037816;28;19913;-67
2022/05/21 06:48:25;;;;;;;;;;;;;;;;;;5043054;28;19917;-67
2022/05/21 06:50:51;;;;;;;;;;;;;;;;;;5038127;28;20368;-66
2022/05/21 06:53:16;;;;;;;;;;;;;;;;;;5044522;28;19952;-67
2022/05/21 06:55:41;;;;;;;;;;;;;;;;;;5037432;28;19969;-68
2022/05/21 06:58:07;;;;;;;;;;;;;;;;;;5033419;28;19936;-66
2022/05/21 07:00:32;;;;;;;;;;;;;;;;;;5049985;28;20399;-66
2022/05/21 07:02:57;;;;;;;;;;;;;;;;;;5051926;28;19939;-66
2022/05/21 07:08:06;;;;;;;;;;;;;;;;;;5050092;28;19917;-66
2022/05/21 07:10:31;;;;;;;;;;;;;;;;;;5052940;28;19927;-66
2022/05/21 07:12:57;;;;;;;;;;;;;;;;;;5053431;28;19920;-67
2022/05/21 07:15:22;;;;;;;;;;;;;;;;;;5059855;28;19966;-68
2022/05/21 07:17:47;;;;;;;;;;;;;;;;;;5041684;28;19924;-66
2022/05/21 07:20:14;;;;;;;;;;;;;;;;;;5051522;28;19917;-66
2022/05/21 07:22:41;;;;;;;;;;;;;;;;;;5054476;28;20453;-67
2022/05/21 07:25:06;;;;;;;;;;;;;;;;;;5052896;28;19964;-66
2022/05/21 07:27:31;;;;;;;;;;;;;;;;;;5051918;28;19921;-67
2022/05/21 07:29:57;;;;;;;;;;;;;;;;;;5041094;28;20870;-67
2022/05/21 07:32:22;;;;;;;;;;;;;;;;;;5052614;28;20287;-66
2022/05/21 07:34:47;;;;;;;;;;;;;;;;;;5026248;28;19939;-67
2022/05/21 07:37:13;;;;;;;;;;;;;;;;;;5032098;28;19947;-66
2022/05/21 07:39:39;;;;;;;;;;;;;;;;;;5035040;28;19982;-67
2022/05/21 07:42:04;;;;;;;;;;;;;;;;;;5052445;28;20254;-67
2022/05/21 07:44:30;;;;;;;;;;;;;;;;;;5051431;28;19978;-67
2022/05/21 07:46:55;;;;;;;;;;;;;;;;;;5048906;28;19992;-67
2022/05/21 07:49:20;;;;;;;;;;;;;;;;;;5053474;28;20004;-67
2022/05/21 07:51:45;;;;;;;;;;;;;;;;;;5036759;28;19923;-67
2022/05/21 07:54:11;;;;;;;;;;;;;;;;;;5025906;28;19931;-66
2022/05/21 07:56:36;;;;;;;;;;;;;;;;;;5050900;28;19985;-67
2022/05/21 07:59:01;;;;;;;;;;;;;;;;;;5052237;28;19923;-67
2022/05/21 08:01:27;;;;;;;;;;;;;;;;;;5033705;28;19927;-67
2022/05/21 08:03:52;;;;;;;;;;;;;;;;;;5049639;28;19995;-67
2022/05/21 08:06:17;;;;;;;;;;;;;;;;;;5050130;28;20062;-67
2022/05/21 08:08:42;;;;;;;;;;;;;;;;;;5048840;28;19917;-68
2022/05/21 08:11:08;;;;;;;;;;;;;;;;;;5052018;28;19917;-68
2022/05/21 08:13:34;;;;;;;;;;;;;;;;;;5032638;28;20080;-69
2022/05/21 08:15:59;;;;;;;;;;;;;;;;;;5048546;28;19922;-69
2022/05/21 08:18:26;;;;;;;;;;;;;;;;;;5051134;28;20338;-68
2022/05/21 08:20:53;;;;;;;;;;;;;;;;;;5048996;28;19917;-68
2022/05/21 08:28:46;;;;;;;;;;;;;;;;;;5050008;28;19940;-68
2022/05/21 08:31:11;;;;;;;;;;;;;;;;;;5033020;28;20282;-67
2022/05/21 08:33:37;;;;;;;;;;;;;;;;;;5049892;28;19958;-66
2022/05/21 08:36:02;;;;;;;;;;;;;;;;;;5033441;28;19942;-66
2022/05/21 08:38:27;;;;;;;;;;;;;;;;;;5051060;28;19931;-66
2022/05/21 08:40:54;;;;;;;;;;;;;;;;;;5048200;28;19927;-66
2022/05/21 08:43:19;;;;;;;;;;;;;;;;;;5035650;28;19976;-66
2022/05/21 08:45:45;;;;;;;;;;;;;;;;;;5052209;28;19916;-66
2022/05/21 08:48:10;;;;;;;;;;;;;;;;;;5035686;28;19928;-66
2022/05/21 08:50:35;;;;;;;;;;;;;;;;;;5040240;28;19924;-67
2022/05/21 08:53:00;;;;;;;;;;;;;;;;;;5036241;28;19944;-67
2022/05/21 08:55:26;;;;;;;;;;;;;;;;;;5039982;28;19933;-66
2022/05/21 08:57:51;;;;;;;;;;;;;;;;;;5018006;28;20365;-66
2022/05/21 09:00:16;;;;;;;;;;;;;;;;;;5040263;28;20342;-66
2022/05/21 09:02:42;;;;;;;;;;;;;;;;;;5048332;28;19951;-66
2022/05/21 09:05:07;;;;;;;;;;;;;;;;;;5050612;28;19917;-66
2022/05/21 09:07:32;;;;;;;;;;;;;;;;;;5050689;28;20035;-66
2022/05/21 09:09:57;;;;;;;;;;;;;;;;;;5050692;28;19982;-66
2022/05/21 09:12:22;;;;;;;;;;;;;;;;;;5051469;28;19920;-66
2022/05/21 09:14:49;;;;;;;;;;;;;;;;;;5035473;28;20550;-66
2022/05/21 09:17:14;;;;;;;;;;;;;;;;;;5035668;28;20019;-67
2022/05/21 09:19:40;;;;;;;;;;;;;;;;;;5050420;28;19928;-66
2022/05/21 09:22:05;;;;;;;;;;;;;;;;;;5041173;28;19917;-66
2022/05/21 09:24:31;;;;;;;;;;;;;;;;;;5033980;28;19916;-66
2022/05/21 09:26:56;;;;;;;;;;;;;;;;;;5052111;28;20556;-66
2022/05/21 09:29:21;;;;;;;;;;;;;;;;;;5050515;28;20331;-66
2022/05/21 09:31:47;;;;;;;;;;;;;;;;;;5049296;28;20609;-66
2022/05/21 09:34:12;;;;;;;;;;;;;;;;;;5049697;28;19924;-65
2022/05/21 09:36:39;;;;;;;;;;;;;;;;;;5050358;28;20019;-65
2022/05/21 09:39:04;;;;;;;;;;;;;;;;;;5050541;28;19936;-66
2022/05/21 09:41:32;;;;;;;;;;;;;;;;;;5048686;28;20038;-66
2022/05/21 09:46:41;;;;;;;;;;;;;;;;;;5049976;28;19921;-66
2022/05/21 09:49:06;;;;;;;;;;;;;;;;;;5048070;28;19950;-67
2022/05/21 09:51:32;;;;;;;;;;;;;;;;;;5039336;28;20061;-67
2022/05/21 09:53:57;;;;;;;;;;;;;;;;;;5042434;28;19985;-67
2022/05/21 09:56:22;;;;;;;;;;;;;;;;;;5048165;28;19916;-67
2022/05/21 09:58:47;;;;;;;;;;;;;;;;;;5049111;28;20672;-66
2022/05/21 10:01:13;;;;;;;;;;;;;;;;;;5037408;28;19917;-66
2022/05/21 10:03:38;;;;;;;;;;;;;;;;;;5024351;28;20894;-67
2022/05/21 10:06:03;;;;;;;;;;;;;;;;;;5030763;28;20285;-67
2022/05/21 10:11:12;;;;;;;;;;;;;;;;;;5052802;28;19924;-66
2022/05/21 10:13:38;;;;;;;;;;;;;;;;;;5046196;28;19917;-66
2022/05/21 10:16:03;;;;;;;;;;;;;;;;;;5033456;28;20373;-66
2022/05/21 10:18:28;;;;;;;;;;;;;;;;;;5039226;28;20249;-66
2022/05/21 10:20:54;;;;;;;;;;;;;;;;;;5044686;28;19981;-66
2022/05/21 10:23:19;;;;;;;;;;;;;;;;;;5032771;28;19917;-66
2022/05/21 10:25:45;;;;;;;;;;;;;;;;;;5044891;28;20019;-66
2022/05/21 10:28:10;;;;;;;;;;;;;;;;;;5046590;28;20368;-66
2022/05/21 10:30:35;;;;;;;;;;;;;;;;;;5052333;28;19920;-66
2022/05/21 10:33:01;;;;;;;;;;;;;;;;;;5044597;28;19924;-65
2022/05/21 10:35:26;;;;;;;;;;;;;;;;;;5052056;28;20094;-65
2022/05/21 10:37:52;;;;;;;;;;;;;;;;;;5044844;28;20517;-66
2022/05/21 10:40:17;;;;;;;;;;;;;;;;;;5045581;28;19917;-66
2022/05/21 10:42:42;;;;;;;;;;;;;;;;;;5053713;28;19916;-66
2022/05/21 10:45:08;;;;;;;;;;;;;;;;;;5030347;28;20457;-66
2022/05/21 10:47:34;;;;;;;;;;;;;;;;;;5052557;28;19916;-66
2022/05/21 10:49:59;;;;;;;;;;;;;;;;;;5027883;28;19923;-66
2022/05/21 10:52:25;;;;;;;;;;;;;;;;;;5043803;28;21240;-66
2022/05/21 10:54:50;;;;;;;;;;;;;;;;;;5053854;28;19917;-66
2022/05/21 10:57:15;;;;;;;;;;;;;;;;;;5041420;28;20006;-66
2022/05/21 10:59:40;;;;;;;;;;;;;;;;;;5051243;28;19925;-66
2022/05/21 11:02:06;;;;;;;;;;;;;;;;;;5030950;28;19917;-66
2022/05/21 11:04:31;;;;;;;;;;;;;;;;;;5034573;28;19916;-66
2022/05/21 11:06:56;;;;;;;;;;;;;;;;;;5051117;28;20127;-66
2022/05/21 11:09:21;;;;;;;;;;;;;;;;;;5046577;28;20327;-66
2022/05/21 11:11:47;;;;;;;;;;;;;;;;;;5053017;28;19916;-66
2022/05/21 11:14:12;;;;;;;;;;;;;;;;;;5048624;28;19916;-66
2022/05/21 11:16:37;;;;;;;;;;;;;;;;;;5048992;28;19938;-65
2022/05/21 11:19:02;;;;;;;;;;;;;;;;;;5057490;28;19925;-66
2022/05/21 11:21:28;;;;;;;;;;;;;;;;;;5045830;28;19955;-67
2022/05/21 11:23:54;;;;;;;;;;;;;;;;;;5051525;28;20069;-66
2022/05/21 11:26:19;;;;;;;;;;;;;;;;;;5043339;28;20353;-67
2022/05/21 11:28:44;;;;;;;;;;;;;;;;;;5044959;28;20361;-67
2022/05/21 11:31:09;;;;;;;;;;;;;;;;;;5020205;28;19932;-67
2022/05/21 11:39:04;;;;;;;;;;;;;;;;;;5024384;28;20008;-67
2022/05/21 11:41:29;;;;;;;;;;;;;;;;;;5054135;28;19984;-67
2022/05/21 11:43:54;;;;;;;;;;;;;;;;;;5045300;28;20321;-65
2022/05/21 11:46:20;;;;;;;;;;;;;;;;;;5048391;28;20369;-65
2022/05/21 11:48:46;;;;;;;;;;;;;;;;;;5048353;28;19916;-65
2022/05/21 11:51:12;;;;;;;;;;;;;;;;;;5041681;28;19916;-66
2022/05/21 11:53:37;;;;;;;;;;;;;;;;;;5043602;28;19924;-66
2022/05/21 11:56:03;;;;;;;;;;;;;;;;;;5050321;28;20002;-66
2022/05/21 11:58:29;;;;;;;;;;;;;;;;;;5049031;28;19924;-66
2022/05/21 12:00:56;;;;;;;;;;;;;;;;;;5028391;28;19967;-65
2022/05/21 12:03:22;;;;;;;;;;;;;;;;;;5053593;28;19920;-66
2022/05/21 12:05:47;;;;;;;;;;;;;;;;;;5023334;28;19917;-66
2022/05/21 12:08:12;;;;;;;;;;;;;;;;;;5052945;28;20426;-66
2022/05/21 12:10:37;;;;;;;;;;;;;;;;;;5045972;28;19951;-66
2022/05/21 12:13:03;;;;;;;;;;;;;;;;;;5047914;28;19913;-66
2022/05/21 12:15:29;;;;;;;;;;;;;;;;;;5055052;28;19917;-66
2022/05/21 12:17:55;;;;;;;;;;;;;;;;;;5047264;28;19931;-67
2022/05/21 12:20:20;;;;;;;;;;;;;;;;;;5052261;28;20267;-66
2022/05/21 12:22:45;;;;;;;;;;;;;;;;;;5046027;28;19979;-66
2022/05/21 12:25:13;;;;;;;;;;;;;;;;;;5049107;28;19924;-67
2022/05/21 12:27:38;;;;;;;;;;;;;;;;;;5059107;28;20010;-67
2022/05/21 12:30:04;;;;;;;;;;;;;;;;;;5030639;28;20011;-67
2022/05/21 12:32:29;;;;;;;;;;;;;;;;;;5052648;28;20426;-67
2022/05/21 12:34:54;;;;;;;;;;;;;;;;;;5045451;28;19916;-66
2022/05/21 12:37:19;;;;;;;;;;;;;;;;;;5047138;28;19921;-66
2022/05/21 12:39:45;;;;;;;;;;;;;;;;;;5047098;28;19917;-66
2022/05/21 12:42:10;;;;;;;;;;;;;;;;;;5030480;28;19958;-67
2022/05/21 12:44:35;;;;;;;;;;;;;;;;;;5033819;28;19923;-67
2022/05/21 12:47:01;;;;;;;;;;;;;;;;;;5054611;28;19919;-66
2022/05/21 12:49:26;;;;;;;;;;;;;;;;;;5057417;28;19935;-67
2022/05/21 12:51:51;;;;;;;;;;;;;;;;;;5042493;28;20016;-67
2022/05/21 12:54:17;;;;;;;;;;;;;;;;;;5046715;28;19956;-67
2022/05/21 12:56:42;;;;;;;;;;;;;;;;;;5048479;28;19939;-67
2022/05/21 12:59:07;;;;;;;;;;;;;;;;;;5054029;28;19917;-67
2022/05/21 13:01:34;;;;;;;;;;;;;;;;;;5045420;28;19924;-67
2022/05/21 13:03:59;;;;;;;;;;;;;;;;;;5049694;28;19916;-67
2022/05/21 13:06:25;;;;;;;;;;;;;;;;;;5043477;28;19943;-66
2022/05/21 13:08:51;;;;;;;;;;;;;;;;;;5044287;28;19920;-67
2022/05/21 13:11:16;;;;;;;;;;;;;;;;;;5054493;28;19978;-67
2022/05/21 13:13:41;;;;;;;;;;;;;;;;;;5045616;28;19986;-67
2022/05/21 13:16:07;;;;;;;;;;;;;;;;;;5051269;28;20361;-67
2022/05/21 13:18:32;;;;;;;;;;;;;;;;;;5045230;28;19925;-67
2022/05/21 13:20:57;;;;;;;;;;;;;;;;;;5051976;28;19916;-69
2022/05/21 13:23:22;;;;;;;;;;;;;;;;;;5041062;28;19977;-66
2022/05/21 13:25:47;;;;;;;;;;;;;;;;;;5051584;28;19946;-67
2022/05/21 13:28:14;;;;;;;;;;;;;;;;;;5050898;28;19916;-66
2022/05/21 13:30:45;;;;;;;;;;;;;;;;;;5043999;28;20281;-67
2022/05/21 13:33:14;;;;;;;;;;;;;;;;;;5046014;28;19962;-67
2022/05/21 13:35:39;;;;;;;;;;;;;;;;;;5051029;28;20361;-67
2022/05/21 13:38:04;;;;;;;;;;;;;;;;;;5049440;28;19929;-67
2022/05/21 13:40:30;;;;;;;;;;;;;;;;;;5035788;28;19917;-67
2022/05/21 13:42:56;;;;;;;;;;;;;;;;;;5048236;28;19913;-67
2022/05/21 13:45:21;;;;;;;;;;;;;;;;;;5050975;28;19924;-67
2022/05/21 13:47:46;;;;;;;;;;;;;;;;;;5055987;28;19923;-67
2022/05/21 13:50:11;;;;;;;;;;;;;;;;;;5049338;28;19923;-67
2022/05/21 13:52:37;;;;;;;;;;;;;;;;;;5058184;28;19925;-67
2022/05/21 13:55:02;;;;;;;;;;;;;;;;;;5049046;28;20665;-67
2022/05/21 13:57:27;;;;;;;;;;;;;;;;;;5050396;28;19925;-67
2022/05/21 13:59:52;;;;;;;;;;;;;;;;;;5053286;28;20722;-67
2022/05/21 14:02:18;;;;;;;;;;;;;;;;;;5026276;28;20373;-67
2022/05/21 14:04:43;;;;;;;;;;;;;;;;;;5024562;28;19921;-67
2022/05/21 14:07:09;;;;;;;;;;;;;;;;;;5012298;28;19917;-67
2022/05/21 14:09:34;;;;;;;;;;;;;;;;;;5022236;28;20094;-68
2022/05/21 14:11:59;;;;;;;;;;;;;;;;;;5011986;28;20364;-68
2022/05/21 14:14:25;;;;;;;;;;;;;;;;;;5018910;28;19928;-67
2022/05/21 14:16:52;;;;;;;;;;;;;;;;;;5017951;28;19925;-67
2022/05/21 14:19:17;;;;;;;;;;;;;;;;;;5018556;28;19924;-68
2022/05/21 14:21:42;;;;;;;;;;;;;;;;;;5001749;28;19921;-67
2022/05/21 14:24:07;;;;;;;;;;;;;;;;;;5001261;28;19917;-68
2022/05/21 14:26:33;;;;;;;;;;;;;;;;;;5014672;28;19929;-68
2022/05/21 14:28:59;;;;;;;;;;;;;;;;;;5018205;28;19917;-68
2022/05/21 14:31:24;;;;;;;;;;;;;;;;;;5020099;28;19917;-68
2022/05/21 14:33:49;;;;;;;;;;;;;;;;;;5011672;28;19926;-68
2022/05/21 14:36:15;;;;;;;;;;;;;;;;;;5007317;28;19921;-67
2022/05/21 14:38:40;;;;;;;;;;;;;;;;;;5015191;28;20023;-68
2022/05/21 14:41:05;;;;;;;;;;;;;;;;;;5017837;28;19917;-67
2022/05/21 14:43:30;;;;;;;;;;;;;;;;;;5015991;28;20337;-67
2022/05/21 14:45:59;;;;;;;;;;;;;;;;;;5015536;28;20444;-67
2022/05/21 14:48:24;;;;;;;;;;;;;;;;;;5002499;28;20017;-67
2022/05/21 14:53:34;;;;;;;;;;;;;;;;;;5013790;28;19964;-66
2022/05/21 14:55:59;;;;;;;;;;;;;;;;;;5015468;28;20066;-67
2022/05/21 14:58:26;;;;;;;;;;;;;;;;;;5012816;28;19984;-67
2022/05/21 15:00:51;;;;;;;;;;;;;;;;;;5014892;28;19918;-66
2022/05/21 15:03:16;;;;;;;;;;;;;;;;;;5028528;28;19995;-67
2022/05/21 15:05:41;;;;;;;;;;;;;;;;;;4999493;28;19921;-67
2022/05/21 15:08:06;;;;;;;;;;;;;;;;;;5017395;28;19997;-65
2022/05/21 15:10:32;;;;;;;;;;;;;;;;;;5013803;28;20389;-67
2022/05/21 15:12:57;;;;;;;;;;;;;;;;;;5015642;28;20654;-66
2022/05/21 15:15:22;;;;;;;;;;;;;;;;;;5014888;28;19924;-67
2022/05/21 15:17:47;;;;;;;;;;;;;;;;;;5021344;28;19947;-66
2022/05/21 15:20:13;;;;;;;;;;;;;;;;;;5009953;28;19947;-66
2022/05/21 15:22:39;;;;;;;;;;;;;;;;;;5014757;28;20606;-66
2022/05/21 15:25:04;;;;;;;;;;;;;;;;;;5016229;28;19917;-66
2022/05/21 15:27:32;;;;;;;;;;;;;;;;;;5028026;28;19952;-66
2022/05/21 15:29:57;;;;;;;;;;;;;;;;;;5010523;28;20357;-66
2022/05/21 15:32:24;;;;;;;;;;;;;;;;;;5012382;28;19924;-66
2022/05/21 15:34:49;;;;;;;;;;;;;;;;;;5011981;28;19972;-66
2022/05/21 15:37:14;;;;;;;;;;;;;;;;;;5012495;28;19929;-66
2022/05/21 15:39:39;;;;;;;;;;;;;;;;;;5011606;28;19940;-66
2022/05/21 15:42:05;;;;;;;;;;;;;;;;;;5010854;28;19928;-66
2022/05/21 15:44:30;;;;;;;;;;;;;;;;;;5011418;28;19924;-66
2022/05/21 15:46:55;;;;;;;;;;;;;;;;;;5012858;28;19997;-66
2022/05/21 15:49:21;;;;;;;;;;;;;;;;;;5011486;28;19928;-66
2022/05/21 15:51:46;;;;;;;;;;;;;;;;;;5011485;28;19936;-66
2022/05/21 15:54:12;;;;;;;;;;;;;;;;;;5015375;28;19925;-66
2022/05/21 15:56:39;;;;;;;;;;;;;;;;;;5008782;28;20058;-66
2022/05/21 15:59:04;;;;;;;;;;;;;;;;;;5014267;28;20625;-66
2022/05/21 16:01:31;;;;;;;;;;;;;;;;;;5014576;28;19968;-67
2022/05/21 16:03:56;;;;;;;;;;;;;;;;;;5013312;28;19998;-66
2022/05/21 16:06:22;;;;;;;;;;;;;;;;;;5016796;28;20518;-66
2022/05/21 16:08:47;;;;;;;;;;;;;;;;;;5027562;28;19921;-66
2022/05/21 16:11:12;;;;;;;;;;;;;;;;;;5011683;28;19918;-65
2022/05/21 16:13:37;;;;;;;;;;;;;;;;;;5016374;28;20670;-66
2022/05/21 16:16:03;;;;;;;;;;;;;;;;;;5018756;28;19917;-66
2022/05/21 16:18:28;;;;;;;;;;;;;;;;;;5015234;28;19991;-65
2022/05/21 16:20:53;;;;;;;;;;;;;;;;;;5012785;28;19968;-65
2022/05/21 16:23:20;;;;;;;;;;;;;;;;;;5014868;28;19971;-66
2022/05/21 16:25:45;;;;;;;;;;;;;;;;;;5029638;28;19921;-66
2022/05/21 16:28:10;;;;;;;;;;;;;;;;;;5005639;28;20039;-66
2022/05/21 16:30:35;;;;;;;;;;;;;;;;;;5015647;28;19944;-66
2022/05/21 16:33:01;;;;;;;;;;;;;;;;;;5012447;28;19983;-65
2022/05/21 16:35:26;;;;;;;;;;;;;;;;;;5011595;28;19971;-66
2022/05/21 16:37:51;;;;;;;;;;;;;;;;;;5011559;28;19921;-66
2022/05/21 16:40:16;;;;;;;;;;;;;;;;;;5014353;28;19924;-66
2022/05/21 16:42:42;;;;;;;;;;;;;;;;;;5011395;28;19917;-66
2022/05/21 16:45:07;;;;;;;;;;;;;;;;;;5011956;28;19917;-66
2022/05/21 16:47:33;;;;;;;;;;;;;;;;;;5004174;28;19969;-66
2022/05/21 16:49:58;;;;;;;;;;;;;;;;;;4997378;28;19954;-66
2022/05/21 16:52:25;;;;;;;;;;;;;;;;;;4997933;28;20011;-66
2022/05/21 16:54:50;;;;;;;;;;;;;;;;;;5012145;28;19917;-66
2022/05/21 16:57:15;;;;;;;;;;;;;;;;;;5012423;28;19929;-66
2022/05/21 16:59:41;;;;;;;;;;;;;;;;;;5013850;28;19921;-65
2022/05/21 17:02:06;;;;;;;;;;;;;;;;;;5014574;28;19918;-66
2022/05/21 17:04:31;;;;;;;;;;;;;;;;;;4992410;28;20654;-66
2022/05/21 17:06:57;;;;;;;;;;;;;;;;;;5011517;28;19913;-66
2022/05/21 17:09:22;;;;;;;;;;;;;;;;;;5012859;28;19924;-66